SBOSBO OLB / LIEO
Speedbird OnlineSpeedbird Online OLB / LIEO

Olbia Costa Smeralda Airport
00:35 3°C

Location Olbia, Italy
Latitude: 40.898701
Longitude: 9.51763
Web Wikipedia
Altitude 11 Meter / 37 Feet
Distance 1,381 KM / 858 Miles
from London.
Time Zone UTC +1 hours (Europe/Rome)
Codes IATA: OLB
ICAO: LIEO
Currency £1 equals EUR 1.13
Runways
RunwayLength (m)Surface
052745Asphalt
232745Asphalt
Radio
TypeDescriptionFrequency
APPOLBIA RADAR125.95
ATISATIS113.9
TWROLBIA TWR118.975
Live ATC
METAR LIEO 081420Z 11010KT 070V140 9999 SCT050 10/00 Q1028
TAF TAF LIEO 081100Z 0812/0912 08012KT 6000 RA SCT030
Weather As Of 09 Feb 2023 00:35
Description Scattered clouds
Wind 6 km/h from South-East (150°)
Cloud Cover 40%
Precipitation Rain: none, Snow: none
Sunrise 07:24
Sunset 17:48
Lounges Club Lounge, Main Terminal



Support Speedbird Online

© 2017-2023 Speedbird Online